M I D A S
Marine Information and Data Acquisition System
Tripno 1263 of the Zeeleeuw from 2007-04-13 07:27:27 to 2007-04-13 15:20:58
Back to CruiseResearch ActivitiesStationsMapUnderway DataData graphs

EquipmentUnitsComment
TimeDGPSUTC
LatitudeDGPSDM.mWGS84
LongitudeDGPSDM.mWGS84
HeadingGyrodeg 
SOGDGPSknotsSpeed over ground
COGDGPSdegCourse over ground
DepthEcho soundermeters200 kHz
Missing or incorrect values are displayed as -999
Navigation data collected by the RV Zeeleeuw from 2007-04-13 07:29:40 to 2007-04-13 15:22:38
Time Latitude Longitude Heading SOG COG Depth
2007-04-13 07:30:45 51°13.615 2°56.036 112.5 3.5 289 -999
2007-04-13 07:31:45 51°13.639 2°55.946 121.9 3.8 297 -999
2007-04-13 07:32:45 51°13.672 2°55.854 124.1 3.8 300 -999
2007-04-13 07:33:45 51°13.698 2°55.778 117.3 2.9 295 4.7
2007-04-13 07:34:45 51°13.71 2°55.733 104.3 0.7 302 14.3
2007-04-13 07:35:45 51°13.713 2°55.74 60.3 0.9 246 14.8
2007-04-13 07:36:45 51°13.718 2°55.732 23.8 1.5 11 -999
2007-04-13 07:37:45 51°13.761 2°55.704 331.7 5.6 326 13.1
2007-04-13 07:38:45 51°13.867 2°55.61 338.8 8.2 334 12.8
2007-04-13 07:39:45 51°13.995 2°55.514 339.4 8.6 335 4.9
2007-04-13 07:40:45 51°14.124 2°55.416 339 8.6 334 13.3
2007-04-13 07:41:45 51°14.246 2°55.283 324.2 10.1 317 13.9
2007-04-13 07:42:45 51°14.38 2°55.053 321.3 12.9 321 12.6
2007-04-13 07:43:45 51°14.559 2°54.856 323.8 13.1 324 11.3
2007-04-13 07:44:45 51°14.74 2°54.656 328 13.2 329 11.5
2007-04-13 07:45:45 51°14.934 2°54.485 332.6 13.2 332 11
2007-04-13 07:46:45 51°15.125 2°54.315 332.1 13.3 331 10.4
2007-04-13 07:47:45 51°15.321 2°54.153 335.8 13.3 334 11.2
2007-04-13 07:48:45 51°15.519 2°54 335.9 13.3 334 12.1
2007-04-13 07:49:45 51°15.716 2°53.848 335.9 13.4 335 12.5
2007-04-13 07:50:45 51°15.916 2°53.698 335.9 13.4 336 13
2007-04-13 07:51:45 51°16.117 2°53.55 335.2 13.2 335 13.4
2007-04-13 07:52:45 51°16.316 2°53.399 335.5 13.3 334 13.6
2007-04-13 07:53:45 51°16.511 2°53.241 333.1 13.2 332 13.6
2007-04-13 07:54:45 51°16.704 2°53.075 332.8 13.2 331 13.3
2007-04-13 07:55:45 51°16.896 2°52.91 333.3 12.9 332 10.7
2007-04-13 07:56:45 51°17.091 2°52.742 332.7 13.4 331 11.9
2007-04-13 07:57:45 51°17.294 2°52.602 345.1 13.5 346 11.9
2007-04-13 07:58:45 51°17.52 2°52.566 359.4 13.8 357 12
2007-04-13 07:59:46 51°17.751 2°52.542 359.3 13.7 356 12.3
2007-04-13 08:00:46 51°17.979 2°52.535 7.5 13.7 5 12.6
2007-04-13 08:01:46 51°18.206 2°52.589 11.9 13.8 8 12.7
2007-04-13 08:02:46 51°18.407 2°52.751 42.8 13.9 41 12.9
2007-04-13 08:03:46 51°18.565 2°53.024 52.3 14 47 13.2
2007-04-13 08:04:46 51°18.73 2°53.288 49.7 14.1 45 13.5
2007-04-13 08:05:46 51°18.897 2°53.55 49.8 14 45 13.7
2007-04-13 08:06:46 51°19.062 2°53.813 49.5 14 44 13.8
2007-04-13 08:07:46 51°19.225 2°54.081 51.5 14 46 13.9
2007-04-13 08:08:46 51°19.386 2°54.352 51.2 14.1 46 14.1
2007-04-13 08:09:46 51°19.548 2°54.621 50.6 14.1 46 14.3
2007-04-13 08:10:46 51°19.711 2°54.893 52.5 14.1 48 14.3
2007-04-13 08:11:46 51°19.865 2°55.175 53.5 14.1 49 14.3
2007-04-13 08:12:46 51°20.019 2°55.456 53.5 14.1 49 14.5
2007-04-13 08:13:46 51°20.175 2°55.739 53.6 14.2 48 14.6
2007-04-13 08:14:46 51°20.33 2°56.02 53.7 14.2 49 14.6
2007-04-13 08:15:46 51°20.488 2°56.302 52.9 14.2 48 14.6
2007-04-13 08:16:46 51°20.644 2°56.584 53.3 14.2 48 14.7
2007-04-13 08:17:46 51°20.795 2°56.875 56.5 14.1 52 14.9
2007-04-13 08:18:46 51°20.935 2°57.176 57.5 14.1 53 14.7
2007-04-13 08:19:46 51°21.077 2°57.476 57.3 14.1 53 14.8
2007-04-13 08:20:46 51°21.221 2°57.773 55.1 14.2 51 14.7
2007-04-13 08:21:46 51°21.371 2°58.062 54.7 14.1 49 14.9
2007-04-13 08:22:46 51°21.528 2°58.341 52 14.1 48 14.8
2007-04-13 08:23:46 51°21.685 2°58.621 51.7 14.1 48 14.6
2007-04-13 08:24:46 51°21.849 2°58.891 48.9 14.2 46 14.7
2007-04-13 08:25:46 51°22.019 2°59.151 47.1 14.2 44 14.8
2007-04-13 08:26:46 51°22.189 2°59.411 47.2 14.1 43 14.8
2007-04-13 08:27:46 51°22.36 2°59.67 46.6 14.2 44 14.9
2007-04-13 08:28:46 51°22.53 2°59.931 47.4 14.2 44 15.2
2007-04-13 08:29:46 51°22.7 3°0.192 46.7 14.3 44 15.2
2007-04-13 08:30:46 51°22.876 3°0.444 45.1 14.2 42 15.6
2007-04-13 08:31:46 51°23.052 3°0.699 45.3 14.3 42 16.1
2007-04-13 08:32:46 51°23.25 3°0.895 21.7 14 17 16.7
2007-04-13 08:33:46 51°23.48 3°0.942 6.7 14 6 18.3
2007-04-13 08:34:46 51°23.711 3°0.985 8.1 14 7 19.4
2007-04-13 08:35:46 51°23.943 3°1.035 9 14.1 8 20.3
2007-04-13 08:36:46 51°24.176 3°1.09 9.6 14.2 9 19.9
2007-04-13 08:37:46 51°24.404 3°1.14 9.9 13.6 9 18.3
2007-04-13 08:38:46 51°24.627 3°1.19 10 13.5 8 20.7
2007-04-13 08:39:46 51°24.849 3°1.239 10.8 13.5 8 19.6
2007-04-13 08:40:46 51°25.071 3°1.29 10.8 13.5 8 16.1
2007-04-13 08:41:46 51°25.293 3°1.342 10.1 13.5 8 15.3
2007-04-13 08:42:46 51°25.51 3°1.442 23.7 13.7 22 14.7
2007-04-13 08:43:46 51°25.721 3°1.584 24.6 13.7 22 13.3
2007-04-13 08:44:45 51°25.93 3°1.722 23.9 13.8 23 12.3
2007-04-13 08:45:46 51°26.14 3°1.896 30.3 14 28 11.9
2007-04-13 08:46:45 51°26.341 3°2.075 33.5 14.2 31 13.2
2007-04-13 08:47:45 51°26.541 3°2.272 33.5 14.1 31 14.2
2007-04-13 08:48:45 51°26.742 3°2.468 34 14.1 35 15.3
2007-04-13 08:49:45 51°26.931 3°2.693 40.3 14.2 38 16.2
2007-04-13 08:50:46 51°27.121 3°2.927 40.1 14.2 38 16
2007-04-13 08:51:46 51°27.31 3°3.154 39.6 14.2 37 14.6
2007-04-13 08:52:46 51°27.5 3°3.378 39.1 14.1 36 17.9
2007-04-13 08:53:46 51°27.689 3°3.601 39.1 14.2 36 19.2
2007-04-13 08:54:46 51°27.878 3°3.826 39.8 14.2 37 20
2007-04-13 08:55:46 51°28.068 3°4.049 39.3 14.2 36 20.6
2007-04-13 08:56:46 51°28.258 3°4.272 39.9 14.1 36 21.4
2007-04-13 08:57:46 51°28.428 3°4.527 54.7 14.1 52 21.7
2007-04-13 08:58:46 51°28.571 3°4.826 54.2 14.2 49 21.6
2007-04-13 08:59:46 51°28.725 3°5.113 53.5 14.3 50 21.6
2007-04-13 09:00:46 51°28.873 3°5.399 56.2 12.1 53 21.4
2007-04-13 09:01:46 51°28.946 3°5.591 63.2 6.6 58 21.2
2007-04-13 09:02:46 51°29.007 3°5.71 49.2 5.8 47 21.3
2007-04-13 09:03:46 51°29.077 3°5.841 53.8 7.3 52 21.1
2007-04-13 09:04:46 51°29.16 3°6.006 54.6 8.3 52 21
2007-04-13 09:05:46 51°29.248 3°6.179 54.5 8.4 52 21.1
2007-04-13 09:06:46 51°29.317 3°6.335 60.9 6.6 56 21.3
2007-04-13 09:07:46 51°29.366 3°6.454 58.8 4.7 58 21.3
2007-04-13 09:08:46 51°29.405 3°6.542 56.6 3.7 55 21.3
2007-04-13 09:09:46 51°29.439 3°6.617 56.9 3.3 54 21.4
2007-04-13 09:10:46 51°29.468 3°6.685 59.9 3 57 21.2
2007-04-13 09:11:46 51°29.493 3°6.751 62 2.9 58 21.3
2007-04-13 09:12:46 51°29.52 3°6.819 60 3.1 56 21.4
2007-04-13 09:13:46 51°29.551 3°6.886 52.9 3.2 48 21.2
2007-04-13 09:14:46 51°29.586 3°6.951 48.8 3.2 49 21.2
2007-04-13 09:15:46 51°29.622 3°7.014 47.7 3.3 49 21.1
2007-04-13 09:16:46 51°29.658 3°7.078 50.1 3.2 49 21.4
2007-04-13 09:17:46 51°29.693 3°7.145 52.5 3.2 50 21.4
2007-04-13 09:18:46 51°29.727 3°7.209 53.1 3.1 46 21.5
2007-04-13 09:19:46 51°29.76 3°7.274 53.2 3.2 50 21.2
2007-04-13 09:20:46 51°29.793 3°7.337 53.7 3 54 21.3
2007-04-13 09:21:46 51°29.825 3°7.399 53.2 3 48 21.4
2007-04-13 09:22:46 51°29.858 3°7.461 51.8 3 51 21.4
2007-04-13 09:23:46 51°29.893 3°7.522 51.8 3.1 45 21.4
2007-04-13 09:24:46 51°29.927 3°7.584 52 3.1 48 21.5
2007-04-13 09:25:46 51°29.96 3°7.646 51.7 3.1 50 21.7
2007-04-13 09:26:46 51°29.995 3°7.706 50.8 3 45 21.5
2007-04-13 09:27:46 51°30.029 3°7.765 50.9 3 43 21.4
2007-04-13 09:28:46 51°30.064 3°7.826 51.9 3.1 48 21.2
2007-04-13 09:29:46 51°30.097 3°7.888 52.7 3.1 49 21.2
2007-04-13 09:30:46 51°30.131 3°7.949 50.8 3.1 49 21.9
2007-04-13 09:31:46 51°30.167 3°8.01 50.1 3.1 47 21.8
2007-04-13 09:32:46 51°30.202 3°8.071 51.4 3.1 48 21.5
2007-04-13 09:33:46 51°30.236 3°8.133 51.6 3.2 51 21.1
2007-04-13 09:34:46 51°30.272 3°8.195 50.8 3.2 49 22
2007-04-13 09:35:46 51°30.308 3°8.255 50 3.1 45 22.2
2007-04-13 09:36:46 51°30.345 3°8.316 50.7 3.2 46 22.4
2007-04-13 09:37:46 51°30.379 3°8.377 52.9 3.1 46 22.5
2007-04-13 09:38:46 51°30.413 3°8.439 54.2 3.1 51 22.1
2007-04-13 09:39:46 51°30.446 3°8.501 52.9 3.1 47 21.5
2007-04-13 09:40:46 51°30.48 3°8.563 51.2 3.1 48 21.3
2007-04-13 09:41:46 51°30.514 3°8.624 51 3.1 48 20.9
2007-04-13 09:42:46 51°30.549 3°8.686 49.5 3.1 46 21.5
2007-04-13 09:43:46 51°30.585 3°8.746 49.3 3.1 46 21.9
2007-04-13 09:44:46 51°30.621 3°8.808 53 3.1 50 22
2007-04-13 09:45:46 51°30.653 3°8.873 60.6 3.1 56 21.9
2007-04-13 09:46:46 51°30.679 3°8.944 72.6 3.1 63 21.7
2007-04-13 09:47:46 51°30.699 3°9.02 82.4 3.1 70 21.6
2007-04-13 09:48:46 51°30.716 3°9.098 82.8 3.1 71 21.8
2007-04-13 09:49:46 51°30.735 3°9.175 80.5 3.1 64 21.8
2007-04-13 09:50:46 51°30.762 3°9.241 52 3 46 22
2007-04-13 09:51:46 51°30.804 3°9.278 7.9 2.8 15 22.1
2007-04-13 09:52:46 51°30.844 3°9.272 318.1 2.2 335 22.2
2007-04-13 09:53:46 51°30.863 3°9.232 264.9 2 269 22.4
2007-04-13 09:54:46 51°30.84 3°9.158 236 4 236 22.5
2007-04-13 09:55:46 51°30.807 3°9.078 233.5 3.1 235 22.4
2007-04-13 09:56:46 51°30.777 3°9.021 228.4 2.8 227 22.4
2007-04-13 09:57:46 51°30.744 3°8.965 227.7 2.9 229 21.9
2007-04-13 09:58:46 51°30.71 3°8.906 229.6 3 228 21.7
2007-04-13 09:59:46 51°30.675 3°8.846 228.7 3.1 225 22
2007-04-13 10:00:46 51°30.639 3°8.785 228.2 3.1 226 22.2
2007-04-13 10:01:46 51°30.604 3°8.724 229.4 3.2 229 21.9
2007-04-13 10:02:46 51°30.57 3°8.661 231.7 3.1 229 20.9
2007-04-13 10:03:46 51°30.536 3°8.598 229 3.1 226 21.1
2007-04-13 10:04:46 51°30.501 3°8.537 229.4 3.1 226 21.6
2007-04-13 10:05:46 51°30.468 3°8.474 230.8 3 229 22
2007-04-13 10:06:46 51°30.441 3°8.42 230.8 2.3 228 22.5
2007-04-13 10:07:46 51°30.418 3°8.377 226.9 2 221 22.6
2007-04-13 10:08:46 51°30.395 3°8.341 224.4 1.9 223 22.6
2007-04-13 10:09:46 51°30.371 3°8.301 227.8 2.1 227 22.4
2007-04-13 10:10:46 51°30.347 3°8.259 229.1 2.2 232 22.3
2007-04-13 10:11:46 51°30.323 3°8.212 229.6 2.5 232 21.7
2007-04-13 10:12:46 51°30.293 3°8.156 227.5 3 231 22
2007-04-13 10:13:46 51°30.256 3°8.095 227.1 3.2 227 21.4
2007-04-13 10:14:46 51°30.221 3°8.037 227.4 3 227 21.5
2007-04-13 10:15:46 51°30.189 3°7.981 228.5 2.8 226 21.8
2007-04-13 10:16:46 51°30.158 3°7.925 228.9 2.8 232 21.9
2007-04-13 10:17:46 51°30.127 3°7.87 228 2.8 225 21.3
2007-04-13 10:18:46 51°30.094 3°7.816 228.5 2.9 230 21.2
2007-04-13 10:19:46 51°30.064 3°7.755 233.2 3 231 21.4
2007-04-13 10:20:46 51°30.033 3°7.695 229.4 2.9 226 21.5
2007-04-13 10:21:46 51°29.999 3°7.638 226.4 2.9 227 21.7
2007-04-13 10:22:46 51°29.964 3°7.581 228 3 229 21.6
2007-04-13 10:23:46 51°29.93 3°7.525 228.6 2.9 224 21.1
2007-04-13 10:24:46 51°29.897 3°7.467 228.9 2.9 232 21.4
2007-04-13 10:25:46 51°29.863 3°7.411 227.8 2.9 227 21.2
2007-04-13 10:26:46 51°29.829 3°7.354 229.7 2.9 226 21.2
2007-04-13 10:27:46 51°29.797 3°7.296 229.9 3 230 21.2
2007-04-13 10:28:46 51°29.765 3°7.238 229.8 2.9 226 21.1
2007-04-13 10:29:46 51°29.733 3°7.18 230.7 2.9 226 21
2007-04-13 10:30:46 51°29.702 3°7.12 230.8 2.9 230 21.3
2007-04-13 10:31:46 51°29.671 3°7.059 232.5 3 231 21.1
2007-04-13 10:32:46 51°29.649 3°6.989 245.9 3 250 21.3
2007-04-13 10:33:46 51°29.635 3°6.911 249.2 3.1 257 21.4
2007-04-13 10:34:46 51°29.63 3°6.83 264.3 3.1 274 21.6
2007-04-13 10:35:46 51°29.645 3°6.726 279.4 5.3 285 21.9
2007-04-13 10:36:46 51°29.668 3°6.563 278.6 6.7 282 22.7
2007-04-13 10:37:46 51°29.696 3°6.385 285.9 7.1 293 23.4
2007-04-13 10:38:46 51°29.778 3°6.275 341.8 5.6 352 24.3
2007-04-13 10:39:46 51°29.851 3°6.312 37.2 4 36 24.5
2007-04-13 10:40:46 51°29.886 3°6.382 62.5 3.1 57 24.6
2007-04-13 10:41:46 51°29.915 3°6.445 54.9 2.8 52 24.5
2007-04-13 10:42:46 51°29.943 3°6.501 54 2.8 51 24.6
2007-04-13 10:43:46 51°29.974 3°6.562 55.8 3.6 50 24.6
2007-04-13 10:44:46 51°30.016 3°6.633 47 3.5 45 24.5
2007-04-13 10:45:46 51°30.053 3°6.695 50.2 3 46 24.5
2007-04-13 10:46:46 51°30.083 3°6.751 54 2.6 49 24.5
2007-04-13 10:47:46 51°30.108 3°6.804 56.6 2.5 51 24.2
2007-04-13 10:48:46 51°30.137 3°6.862 55.7 3 55 24.5
2007-04-13 10:49:46 51°30.171 3°6.927 52.8 3.3 51 24.5
2007-04-13 10:50:46 51°30.21 3°6.995 50.5 3.5 45 24.2
2007-04-13 10:51:46 51°30.248 3°7.063 52.2 3.3 49 24.6
2007-04-13 10:52:46 51°30.283 3°7.129 54.3 3.2 50 25
2007-04-13 10:53:46 51°30.316 3°7.193 54.4 3.1 53 24.2
2007-04-13 10:54:46 51°30.347 3°7.255 54.8 3 50 24.4
2007-04-13 10:55:46 51°30.378 3°7.315 53.8 2.9 53 25.3
2007-04-13 10:56:46 51°30.408 3°7.375 53.7 2.9 52 25.1
2007-04-13 10:57:46 51°30.439 3°7.434 53.8 3 51 24.8
2007-04-13 10:58:46 51°30.47 3°7.496 53.3 3.1 53 25.3
2007-04-13 10:59:46 51°30.503 3°7.559 52.6 3.1 49 25.3
2007-04-13 11:00:46 51°30.538 3°7.623 52.2 3.2 47 24.4
2007-04-13 11:01:46 51°30.573 3°7.689 52.9 3.3 51 23.9
2007-04-13 11:02:46 51°30.607 3°7.756 53.7 3.2 51 24.4
2007-04-13 11:03:46 51°30.642 3°7.823 52.8 3.2 51 25.5
2007-04-13 11:04:46 51°30.677 3°7.89 52.6 3.2 49 25.2
2007-04-13 11:05:46 51°30.711 3°7.955 54.2 3.2 52 25.1
2007-04-13 11:06:46 51°30.744 3°8.02 55.1 3.1 52 25.3
2007-04-13 11:07:46 51°30.777 3°8.085 55.3 3.1 51 25.4
2007-04-13 11:08:46 51°30.809 3°8.15 56.1 3.1 52 25.2
2007-04-13 11:09:46 51°30.84 3°8.214 56.1 3.1 51 24
2007-04-13 11:10:46 51°30.872 3°8.278 57.9 3.1 54 22.8
2007-04-13 11:11:46 51°30.902 3°8.344 61.2 3.1 56 23.3
2007-04-13 11:12:46 51°30.93 3°8.413 66.7 3.1 56 23.7
2007-04-13 11:13:46 51°30.957 3°8.482 65.6 3 58 23.7
2007-04-13 11:14:46 51°30.985 3°8.55 63 3 55 24.1
2007-04-13 11:15:46 51°31.023 3°8.603 28.3 3 27 24.4
2007-04-13 11:16:46 51°31.071 3°8.61 335.7 2.9 344 24.9
2007-04-13 11:17:46 51°31.096 3°8.555 264.1 2.6 265 25.1
2007-04-13 11:18:46 51°31.057 3°8.498 217.2 4 216 24.3
2007-04-13 11:19:46 51°31.016 3°8.418 238 3.7 239 23.7
2007-04-13 11:20:46 51°30.983 3°8.353 225.2 2.7 224 23.4
2007-04-13 11:21:46 51°30.948 3°8.307 223.9 2.8 220 23.3
2007-04-13 11:22:46 51°30.915 3°8.25 230.2 3 231 23.8
2007-04-13 11:23:46 51°30.885 3°8.187 233.7 3.1 235 23.3
2007-04-13 11:24:46 51°30.853 3°8.123 230.8 3 232 24.8
2007-04-13 11:25:46 51°30.817 3°8.061 228.8 3.1 228 25.5
2007-04-13 11:26:46 51°30.782 3°8.001 228.7 3.1 226 25.2
2007-04-13 11:27:46 51°30.747 3°7.939 230.7 3.2 228 25.6
2007-04-13 11:28:46 51°30.712 3°7.876 229.6 3.3 229 25.2
2007-04-13 11:29:46 51°30.677 3°7.811 231.9 3.2 230 25.5
2007-04-13 11:30:46 51°30.644 3°7.743 232.1 3.1 231 24.3
2007-04-13 11:31:46 51°30.61 3°7.681 231 3 229 24
2007-04-13 11:32:46 51°30.579 3°7.618 231.3 3 231 24.3
2007-04-13 11:33:46 51°30.547 3°7.557 231.5 2.9 229 24.9
2007-04-13 11:34:46 51°30.516 3°7.495 230.8 3 234 25.4
2007-04-13 11:35:46 51°30.484 3°7.434 231.2 3.1 231 25.4
2007-04-13 11:36:46 51°30.452 3°7.37 232.2 3.1 231 24.6
2007-04-13 11:37:46 51°30.421 3°7.306 231.8 3.1 232 25.3
2007-04-13 11:38:46 51°30.389 3°7.242 231.2 3.1 232 24.9
2007-04-13 11:39:46 51°30.356 3°7.178 231.7 3.1 231 24.3
2007-04-13 11:40:46 51°30.324 3°7.113 231.4 3.1 230 24.7
2007-04-13 11:41:46 51°30.291 3°7.049 230.7 3.1 232 24.7
2007-04-13 11:42:46 51°30.258 3°6.985 230.1 3.2 230 23.9
2007-04-13 11:43:46 51°30.224 3°6.921 230.5 3.1 230 24
2007-04-13 11:44:46 51°30.191 3°6.857 229.8 3.1 229 24.5
2007-04-13 11:45:46 51°30.157 3°6.793 230.1 3.2 230 24.2
2007-04-13 11:46:46 51°30.122 3°6.729 230.1 3.2 228 23.7
2007-04-13 11:47:46 51°30.088 3°6.664 230.3 3.2 230 24
2007-04-13 11:48:46 51°30.053 3°6.599 229.8 3.2 228 24.3
2007-04-13 11:49:46 51°30.018 3°6.533 231 3.2 229 24.2
2007-04-13 11:50:46 51°29.984 3°6.466 230.1 3.3 231 24.2
2007-04-13 11:51:46 51°29.949 3°6.4 230.4 3.3 225 24.3
2007-04-13 11:52:46 51°29.911 3°6.328 230 4.5 230 24.1
2007-04-13 11:53:46 51°29.915 3°6.189 296.4 6.6 306 24.4
2007-04-13 11:54:46 51°30.033 3°6.136 358.6 8.5 358 24.8
2007-04-13 11:55:46 51°30.181 3°6.175 16.4 9.2 13 24.7
2007-04-13 11:56:46 51°30.333 3°6.228 15.6 9.4 12 25.5
2007-04-13 11:57:46 51°30.487 3°6.281 14.8 9.4 12 24.8
2007-04-13 11:58:46 51°30.639 3°6.337 20.9 8.6 22 24.6
2007-04-13 11:59:46 51°30.696 3°6.451 86.5 4.1 79 24.9
2007-04-13 12:00:46 51°30.688 3°6.531 136 2.5 118 25.2
2007-04-13 12:01:46 51°30.659 3°6.584 149.3 3 134 25.2
2007-04-13 12:02:46 51°30.624 3°6.654 140.7 3.6 126 25.4
2007-04-13 12:03:46 51°30.592 3°6.727 140 3.2 125 25.5
2007-04-13 12:04:46 51°30.56 3°6.788 147.7 2.9 133 25.7
2007-04-13 12:05:46 51°30.526 3°6.838 153.4 2.8 141 25.6
2007-04-13 12:06:46 51°30.488 3°6.882 158.2 2.9 145 25.3
2007-04-13 12:07:46 51°30.447 3°6.924 158 2.9 148 24.9
2007-04-13 12:08:46 51°30.407 3°6.971 152.5 3 141 24.7
2007-04-13 12:09:46 51°30.368 3°7.024 148.5 3.1 139 24.7
2007-04-13 12:10:46 51°30.329 3°7.078 150.1 3.2 140 24.8
2007-04-13 12:11:46 51°30.289 3°7.129 151.8 3.1 144 24.3
2007-04-13 12:12:46 51°30.248 3°7.179 151.6 3.1 143 23.9
2007-04-13 12:13:46 51°30.207 3°7.228 153 3.1 146 23.5
2007-04-13 12:14:46 51°30.165 3°7.276 152.7 3.1 143 23
2007-04-13 12:15:46 51°30.123 3°7.323 152.4 3.1 144 22.4
2007-04-13 12:16:46 51°30.081 3°7.371 152.5 3.1 145 21.9
2007-04-13 12:17:46 51°30.039 3°7.418 151.8 3.1 145 21.3
2007-04-13 12:18:46 51°29.998 3°7.468 150.6 3.1 144 20.8
2007-04-13 12:19:46 51°29.956 3°7.518 150.3 3.1 145 20.4
2007-04-13 12:20:46 51°29.915 3°7.568 149.6 3.1 143 20
2007-04-13 12:21:46 51°29.874 3°7.619 149.1 3.1 141 20
2007-04-13 12:22:46 51°29.835 3°7.672 143.6 3.1 133 19.7
2007-04-13 12:23:46 51°29.808 3°7.738 124.1 3 114 19.2
2007-04-13 12:24:46 51°29.791 3°7.82 111.9 3.9 104 18.9
2007-04-13 12:25:46 51°29.795 3°7.939 83.7 4.8 75 18.9
2007-04-13 12:26:46 51°29.836 3°8.058 60.4 5.6 54 18.9
2007-04-13 12:27:46 51°29.898 3°8.188 58.7 6.5 52 18.3
2007-04-13 12:28:46 51°29.969 3°8.323 55 6.7 49 18.9
2007-04-13 12:29:46 51°30.041 3°8.462 57.5 6.7 51 18.1
2007-04-13 12:30:46 51°30.109 3°8.602 58.2 6.3 50 18.8
2007-04-13 12:31:46 51°30.182 3°8.652 5.6 3.9 359 18.9
2007-04-13 12:32:46 51°30.231 3°8.617 325.5 3.2 324 19.3
2007-04-13 12:33:46 51°30.276 3°8.567 330 3.2 327 19.2
2007-04-13 12:34:46 51°30.323 3°8.528 338.3 3.1 335 19.4
2007-04-13 12:35:46 51°30.369 3°8.493 334.3 3 331 20.1
2007-04-13 12:36:46 51°30.408 3°8.443 316.9 3 316 20.7
2007-04-13 12:37:46 51°30.444 3°8.388 319.9 3 319 21.3
2007-04-13 12:38:46 51°30.482 3°8.337 324.5 2.9 321 22
2007-04-13 12:39:46 51°30.521 3°8.29 327.2 2.9 323 22.5
2007-04-13 12:40:46 51°30.56 3°8.242 325.9 3.1 323 22.5
2007-04-13 12:41:46 51°30.599 3°8.193 323.2 3 321 22.8
2007-04-13 12:42:46 51°30.637 3°8.14 322.9 3 319 23.3
2007-04-13 12:43:46 51°30.675 3°8.088 322.6 3 320 24
2007-04-13 12:44:46 51°30.713 3°8.035 322.7 3 317 24.2
2007-04-13 12:45:46 51°30.751 3°7.982 322.3 3 317 24.5
2007-04-13 12:46:46 51°30.789 3°7.93 323.1 3.1 319 25
2007-04-13 12:47:46 51°30.827 3°7.878 323 3 318 25.1
2007-04-13 12:48:46 51°30.864 3°7.824 320.8 3 317 25.3
2007-04-13 12:49:46 51°30.9 3°7.77 321.6 3 317 25.4
2007-04-13 12:50:46 51°30.936 3°7.716 322 3 318 25.5
2007-04-13 12:51:46 51°30.974 3°7.663 322.7 3 320 25.6
2007-04-13 12:52:46 51°31.012 3°7.611 321.4 3 318 25.4
2007-04-13 12:53:46 51°31.049 3°7.525 297.1 5.9 295 24.3
2007-04-13 12:54:46 51°31.1 3°7.4 322.2 4.3 321 23.7
2007-04-13 12:55:46 51°31.157 3°7.375 11.1 3.4 8 23.6
2007-04-13 12:56:46 51°31.196 3°7.423 69.5 2.9 66 24.2
2007-04-13 12:57:46 51°31.188 3°7.493 129.9 2.8 125 23.7
2007-04-13 12:58:46 51°31.148 3°7.552 145.9 3.6 140 24.5
2007-04-13 12:59:46 51°31.099 3°7.616 146.5 3.8 144 23.9
2007-04-13 13:00:46 51°31.05 3°7.669 154 3.4 147 23.1
2007-04-13 13:01:46 51°31.004 3°7.714 149.7 3.2 145 24.4
2007-04-13 13:02:46 51°30.967 3°7.767 137 2.9 133 25.2
2007-04-13 13:03:46 51°30.936 3°7.827 133.5 2.9 132 25.3
2007-04-13 13:04:46 51°30.902 3°7.884 139.9 3 137 25.1
2007-04-13 13:05:46 51°30.863 3°7.935 146.7 3 145 24.8
2007-04-13 13:06:46 51°30.821 3°7.981 148.3 3 147 24.7
2007-04-13 13:07:46 51°30.779 3°8.028 146.5 3.1 145 24.3
2007-04-13 13:08:46 51°30.739 3°8.077 143.4 3 141 24
2007-04-13 13:09:46 51°30.701 3°8.129 141.9 3 140 23.7
2007-04-13 13:10:46 51°30.662 3°8.18 143.6 3.1 142 23.4
2007-04-13 13:11:46 51°30.622 3°8.229 144.8 3 141 23
2007-04-13 13:12:46 51°30.582 3°8.278 144.4 3 142 22.8
2007-04-13 13:13:46 51°30.543 3°8.33 140.6 3.1 139 22.3
2007-04-13 13:14:46 51°30.508 3°8.386 137.2 3 132 21.6
2007-04-13 13:15:46 51°30.47 3°8.439 142.5 3 138 20.7
2007-04-13 13:16:46 51°30.429 3°8.488 145.8 3 143 20
2007-04-13 13:17:46 51°30.388 3°8.535 145.7 3 148 19.4
2007-04-13 13:18:46 51°30.348 3°8.583 141.6 3 139 18.9
2007-04-13 13:19:46 51°30.32 3°8.639 120.9 2.5 110 18.6
2007-04-13 13:20:46 51°30.316 3°8.718 89.2 4.9 73 18.5
2007-04-13 13:21:46 51°30.418 3°8.891 49.4 11.9 41 19.2
2007-04-13 13:22:46 51°30.577 3°9.066 35.2 10 26 19.5
2007-04-13 13:23:46 51°30.686 3°9.135 18.8 5 6 19.4
2007-04-13 13:24:46 51°30.746 3°9.114 340.4 3.1 328 20.2
2007-04-13 13:25:46 51°30.771 3°9.055 291.5 2.7 281 20.5
2007-04-13 13:26:46 51°30.76 3°8.986 233 2.8 234 20.5
2007-04-13 13:27:46 51°30.724 3°8.916 233.3 3.7 237 19.9
2007-04-13 13:28:46 51°30.694 3°8.832 243.4 3.4 242 20.4
2007-04-13 13:29:46 51°30.667 3°8.755 238.2 3.2 239 20.8
2007-04-13 13:30:46 51°30.636 3°8.688 231.4 3.1 232 20.7
2007-04-13 13:31:46 51°30.604 3°8.623 230.9 3.1 234 18.2
2007-04-13 13:32:46 51°30.572 3°8.56 228.5 3.1 231 20
2007-04-13 13:33:46 51°30.537 3°8.502 221.9 3 225 20.3
2007-04-13 13:34:46 51°30.5 3°8.449 219.6 3 219 20.8
2007-04-13 13:35:46 51°30.463 3°8.394 220.4 3 220 20.9
2007-04-13 13:36:46 51°30.426 3°8.339 220.7 3.1 223 21
2007-04-13 13:37:46 51°30.39 3°8.283 223.6 3 227 20.8
2007-04-13 13:38:46 51°30.356 3°8.222 230.1 3 232 20.5
2007-04-13 13:39:46 51°30.325 3°8.158 232.4 3.1 229 20.3
2007-04-13 13:40:46 51°30.293 3°8.097 228.7 3 228 20.1
2007-04-13 13:41:46 51°30.259 3°8.039 225.8 3 224 19.9
2007-04-13 13:42:46 51°30.224 3°7.982 225.7 3 224 19.8
2007-04-13 13:43:46 51°30.19 3°7.924 225.5 3 223 20.1
2007-04-13 13:44:46 51°30.155 3°7.866 225 3 225 19.2
2007-04-13 13:45:46 51°30.12 3°7.807 225.6 3.1 228 19.5
2007-04-13 13:46:46 51°30.07 3°7.729 221.5 6.6 220 19.6
2007-04-13 13:47:46 51°29.943 3°7.547 225.1 12.9 227 19.1
2007-04-13 13:48:46 51°29.796 3°7.275 230.2 13.6 231 19.2
2007-04-13 13:49:46 51°29.652 3°6.996 231.4 13.6 231 19.2
2007-04-13 13:50:46 51°29.51 3°6.715 232.9 13.6 230 19.3
2007-04-13 13:51:46 51°29.363 3°6.443 229.4 13.5 227 19
2007-04-13 13:52:46 51°29.215 3°6.172 230 13.5 229 18.5
2007-04-13 13:53:46 51°29.066 3°5.903 228.8 13.3 225 18.6
2007-04-13 13:54:46 51°28.891 3°5.676 220 13.6 219 17.9
2007-04-13 13:55:46 51°28.719 3°5.441 220.7 13.7 219 17.6
2007-04-13 13:56:46 51°28.547 3°5.205 219.9 13.7 221 17.3
2007-04-13 13:57:46 51°28.375 3°4.968 221.3 13.5 220 16.8
2007-04-13 13:58:46 51°28.203 3°4.728 221 13.7 221 16.6
2007-04-13 13:59:46 51°28.032 3°4.49 221.9 13.5 219 16.3
2007-04-13 14:00:46 51°27.86 3°4.249 219.8 13.8 223 16
2007-04-13 14:01:46 51°27.685 3°4.009 220.9 14 222 15.6
2007-04-13 14:02:46 51°27.508 3°3.776 220.8 13.6 219 15.3
2007-04-13 14:03:46 51°27.333 3°3.543 221.5 13.7 220 14.6
2007-04-13 14:04:46 51°27.157 3°3.311 222 13.7 221 13.9
2007-04-13 14:05:46 51°26.983 3°3.073 221.4 13.9 221 14
2007-04-13 14:06:46 51°26.809 3°2.837 220.5 13.7 222 13.3
2007-04-13 14:07:46 51°26.635 3°2.6 221.6 13.7 222 12.3
2007-04-13 14:08:46 51°26.462 3°2.365 221.9 13.5 221 10.7
2007-04-13 14:09:46 51°26.289 3°2.126 221.5 13.8 221 10.7
2007-04-13 14:10:46 51°26.115 3°1.888 220.4 14 221 9.5
2007-04-13 14:11:46 51°25.941 3°1.649 220.8 13.9 219 10
2007-04-13 14:12:46 51°25.768 3°1.403 221.1 14.1 220 10.8
2007-04-13 14:13:46 51°25.591 3°1.169 216 13.6 214 12.2
2007-04-13 14:14:46 51°25.378 3°1.091 178.2 12.9 175 12.8
2007-04-13 14:15:46 51°25.163 3°1.138 168.5 13.1 173 13
2007-04-13 14:16:46 51°24.946 3°1.182 170.2 13.2 173 14.8
2007-04-13 14:17:46 51°24.727 3°1.219 171.3 13.6 174 18
2007-04-13 14:18:46 51°24.505 3°1.25 173.4 13.6 176 15.9
2007-04-13 14:19:46 51°24.283 3°1.274 174.6 13.5 179 17.2
2007-04-13 14:20:46 51°24.057 3°1.279 176.8 13.6 180 17.9
2007-04-13 14:21:46 51°23.831 3°1.277 176.9 13.6 181 16.9
2007-04-13 14:22:46 51°23.606 3°1.276 177.1 13.6 181 15.6
2007-04-13 14:23:46 51°23.39 3°1.165 203.5 14.1 204 14.5
2007-04-13 14:24:46 51°23.198 3°0.955 217.7 14 219 13.7
2007-04-13 14:25:46 51°23.021 3°0.709 227.2 14.2 228 13.3
2007-04-13 14:26:46 51°22.857 3°0.439 225.8 14.2 223 12.9
2007-04-13 14:27:46 51°22.689 3°0.177 225 14.3 224 12.7
2007-04-13 14:28:46 51°22.518 2°59.918 223 14.3 222 12.5
2007-04-13 14:29:46 51°22.346 2°59.662 224.2 14.2 224 12.2
2007-04-13 14:30:46 51°22.183 2°59.391 228 14.1 227 12.2
2007-04-13 14:31:46 51°22.02 2°59.119 228 14.2 226 12
2007-04-13 14:32:46 51°21.857 2°58.847 227.9 14.2 227 12.1
2007-04-13 14:33:46 51°21.693 2°58.577 227.2 14.2 226 12.1
2007-04-13 14:34:46 51°21.528 2°58.305 227.5 14.2 226 12.1
2007-04-13 14:35:46 51°21.363 2°58.032 227.2 14.2 226 12.1
2007-04-13 14:36:46 51°21.198 2°57.758 228.6 14.2 224 12
2007-04-13 14:37:46 51°21.036 2°57.482 229.1 14.1 225 11.9
2007-04-13 14:38:46 51°20.873 2°57.205 228.6 14.3 225 11.7
2007-04-13 14:39:46 51°20.712 2°56.928 228.6 14.3 228 11.8
2007-04-13 14:40:46 51°20.55 2°56.649 227.6 14.4 227 11.8
2007-04-13 14:41:46 51°20.388 2°56.372 228.3 14.3 227 11.7
2007-04-13 14:42:46 51°20.226 2°56.094 228.6 14.3 227 11.6
2007-04-13 14:43:46 51°20.061 2°55.815 228.3 14.4 226 11.6
2007-04-13 14:44:46 51°19.897 2°55.534 228.4 14.3 227 11.5
2007-04-13 14:45:46 51°19.733 2°55.253 227.7 14.5 228 11.5
2007-04-13 14:46:46 51°19.568 2°54.973 227.1 14.7 227 11.2
2007-04-13 14:47:46 51°19.402 2°54.693 228.9 14.5 226 11.1
2007-04-13 14:48:46 51°19.236 2°54.411 228.2 14.5 226 11.1
2007-04-13 14:49:46 51°19.07 2°54.13 227.6 14.5 227 10.9
2007-04-13 14:50:46 51°18.904 2°53.852 228.6 14.4 228 10.7
2007-04-13 14:51:46 51°18.739 2°53.57 228.5 14.5 227 10.5
2007-04-13 14:52:46 51°18.573 2°53.287 228.6 14.6 227 10.4
2007-04-13 14:53:46 51°18.406 2°53.006 228.6 14.6 227 10.3
2007-04-13 14:54:46 51°18.239 2°52.724 229.3 14.5 226 10.1
2007-04-13 14:55:46 51°18.053 2°52.484 213.9 14.4 209 9.5
2007-04-13 14:56:46 51°17.837 2°52.335 195.5 14.3 195 9.5
2007-04-13 14:57:46 51°17.605 2°52.296 182.3 13.9 181 9.5
2007-04-13 14:58:46 51°17.375 2°52.331 170.5 14.1 172 9.4
2007-04-13 14:59:46 51°17.145 2°52.373 173.5 13.9 174 9.1
2007-04-13 15:00:46 51°16.918 2°52.42 169.1 13.7 169 8.4
2007-04-13 15:01:46 51°16.7 2°52.532 158.7 13.9 161 8.8
2007-04-13 15:02:46 51°16.483 2°52.66 157.3 13.8 160 10.7
2007-04-13 15:03:46 51°16.268 2°52.782 157 13.5 160 11
2007-04-13 15:04:46 51°16.056 2°52.903 156.6 13.4 161 10.8
2007-04-13 15:05:46 51°15.847 2°53.033 152.7 13.4 156 10.5
2007-04-13 15:06:46 51°15.649 2°53.195 146.6 13.2 149 10.1
2007-04-13 15:07:46 51°15.476 2°53.404 137.7 13 142 9.5
2007-04-13 15:08:46 51°15.311 2°53.615 138.6 12.9 142 9
2007-04-13 15:09:46 51°15.145 2°53.835 135 12.8 137 8.5
2007-04-13 15:10:46 51°14.986 2°54.072 131.8 12.8 136 8.2
2007-04-13 15:11:46 51°14.82 2°54.298 136.7 13.4 137 8.1
2007-04-13 15:12:46 51°14.657 2°54.532 133.3 13.1 135 8.6
2007-04-13 15:13:46 51°14.508 2°54.786 129.9 13 133 8.9
2007-04-13 15:14:46 51°14.371 2°55.054 129.6 12.9 127 9.8
2007-04-13 15:15:46 51°14.228 2°55.311 139.5 12.8 140 10.8
2007-04-13 15:16:46 51°14.061 2°55.463 157.5 9.9 156 10.2
2007-04-13 15:17:46 51°13.929 2°55.56 158.4 8.4 155 10.4
2007-04-13 15:18:46 51°13.805 2°55.653 156 7.6 151 10.3
2007-04-13 15:19:46 51°13.725 2°55.757 137.4 5.5 134 11.3
2007-04-13 15:20:46 51°13.67 2°55.866 129.1 5.1 125 9.3
2007-04-13 15:21:46 51°13.63 2°55.965 123.7 3.9 121 9.5